Aeroporto :
LOGIN :

Iscrizione | Disclaimer

   EN    FR    IT 

 










Sommario :    VFR   VFR Marginale   IFR   IFR Intensivo   IFR Molto Intensivo
Visibilità : 
Base nubi : 
>= 8 km
>= 3000ft
5 / 8 km
1000 / 3000 ft
1500m / 5 km
500 / 1000 ft
800 / 1500m
200 / 500 ft
< 800m
< 200 ft
Simboli :   Temporali  Nebbia  Neve Forte  Precipitazioni Forti  Vento > 20 kt
SIGMETs :   Varie  Temporali  Ghiacco  Turbolenza  Onda orograficha  Ceneri Vulcaniche






- Altitudine del aeroporto : 302 ft


LFPM - Melun Villaroche

ULTIMO METAR :
  • 291400Z AUTO 24021KT 9999 BKN027 BKN033 BKN041 10/05 Q0996

METARs OBSOLETI :
  • 291330Z AUTO 24016KT 9999 FEW023 BKN028 OVC120 10/05 Q0996
  • 291300Z AUTO 25013KT 9999 BKN017 BKN022 BKN110 09/06 Q0995
  • 291230Z AUTO 25015KT 9999 FEW018 BKN058 BKN100 09/06 Q0995
  • 291200Z AUTO 24014KT 9999 FEW042/// SCT048/// BKN056/// ///CB 08/06 Q0995
  • 291130Z AUTO 22029G39KT 180V270 9999 1100 +TSRA FEW019/// OVC026/// ///CB 09/04 Q0994
  • 291100Z AUTO 21026G41KT 9999 BKN030/// OVC036/// ///CB 11/08 Q0993

Previsioni scadute.
ATIS : +33 1 64 14 28 44



MetMap, La meteo Aeronautica in un colpo d'occhio ! - Copyright ORBIFLY Dicembre 2007 - Disclaimer

ORBIFLY MET'MAP TEAM :

Programmazione e sviluppo : Alexandra Zaïnal
Concezione : Baudouin d'Aumeries
Aiuto per la programmazione : Marc-Olivier Méhu
Supporto tecnico e logistico : Manuel Goepfert
Aiuto per la traduzione : Arnaldo La Scala

Contatto : metmap@orbifly.com




FONTI E CREDITI :

   NOAA